sensor_id;sensor_type;location;lat;lon;timestamp;pressure;altitude;pressure_sealevel;temperature;humidity
55317;BME280;41178;48.956;8.130;2024-03-25T00:04:25;99271.97;;;10.65;42.51
55317;BME280;41178;48.956;8.130;2024-03-25T00:09:26;99178.72;;;11.17;42.22
55317;BME280;41178;48.956;8.130;2024-03-25T00:14:26;99184.97;;;11.91;41.26
55317;BME280;41178;48.956;8.130;2024-03-25T00:19:27;99269.25;;;11.62;41.21
55317;BME280;41178;48.956;8.130;2024-03-25T00:24:28;99182.03;;;12.13;40.42
55317;BME280;41178;48.956;8.130;2024-03-25T00:29:28;99240.31;;;11.17;41.54
55317;BME280;41178;48.956;8.130;2024-03-25T00:34:29;99145.84;;;12.55;40.42
55317;BME280;41178;48.956;8.130;2024-03-25T00:39:30;99140.69;;;12.92;39.73
55317;BME280;41178;48.956;8.130;2024-03-25T00:44:35;99187.66;;;11.65;41.45
55317;BME280;41178;48.956;8.130;2024-03-25T00:49:35;99274.47;;;12.17;40.05
55317;BME280;41178;48.956;8.130;2024-03-25T00:54:36;99209.84;;;12.45;39.82
55317;BME280;41178;48.956;8.130;2024-03-25T00:59:37;99213.19;;;12.14;40.38
55317;BME280;41178;48.956;8.130;2024-03-25T01:04:38;99318.84;;;11.31;41.06
55317;BME280;41178;48.956;8.130;2024-03-25T01:09:38;99226.84;;;10.56;42.44
55317;BME280;41178;48.956;8.130;2024-03-25T01:14:39;99218.56;;;10.50;42.83
55317;BME280;41178;48.956;8.130;2024-03-25T01:19:40;99156.66;;;11.09;42.21
55317;BME280;41178;48.956;8.130;2024-03-25T01:24:40;99191.47;;;11.22;41.36
55317;BME280;41178;48.956;8.130;2024-03-25T01:29:41;99384.97;;;10.67;41.03
55317;BME280;41178;48.956;8.130;2024-03-25T01:34:42;99284.44;;;10.86;41.56
55317;BME280;41178;48.956;8.130;2024-03-25T01:39:42;99170.28;;;11.20;41.82
55317;BME280;41178;48.956;8.130;2024-03-25T01:44:43;99170.91;;;10.67;42.36
55317;BME280;41178;48.956;8.130;2024-03-25T01:49:44;99198.25;;;10.21;43.39
55317;BME280;41178;48.956;8.130;2024-03-25T01:54:44;99219.50;;;9.80;43.49
55317;BME280;41178;48.956;8.130;2024-03-25T01:59:45;99147.00;;;10.59;42.77
55317;BME280;41178;48.956;8.130;2024-03-25T02:04:47;99192.13;;;11.37;41.29
55317;BME280;41178;48.956;8.130;2024-03-25T02:09:47;99204.00;;;11.01;41.84
55317;BME280;41178;48.956;8.130;2024-03-25T02:14:48;99247.00;;;10.51;42.24
55317;BME280;41178;48.956;8.130;2024-03-25T02:19:50;99172.72;;;11.02;41.71
55317;BME280;41178;48.956;8.130;2024-03-25T02:24:52;99118.72;;;11.05;42.15
55317;BME280;41178;48.956;8.130;2024-03-25T02:29:54;99075.03;;;12.43;40.22
55317;BME280;41178;48.956;8.130;2024-03-25T02:34:56;99158.09;;;11.11;41.97
55317;BME280;41178;48.956;8.130;2024-03-25T02:39:59;99176.13;;;9.77;43.85
55317;BME280;41178;48.956;8.130;2024-03-25T02:45:00;99045.97;;;10.55;43.14
55317;BME280;41178;48.956;8.130;2024-03-25T02:50:01;99163.50;;;10.69;42.39
55317;BME280;41178;48.956;8.130;2024-03-25T02:55:02;99199.31;;;11.23;41.55
55317;BME280;41178;48.956;8.130;2024-03-25T03:00:03;99096.72;;;11.23;41.94
55317;BME280;41178;48.956;8.130;2024-03-25T03:05:05;99191.59;;;9.82;43.46
55317;BME280;41178;48.956;8.130;2024-03-25T03:10:06;99156.66;;;10.12;43.35
55317;BME280;41178;48.956;8.130;2024-03-25T03:15:07;99060.19;;;10.68;43.29
55317;BME280;41178;48.956;8.130;2024-03-25T03:20:08;99208.97;;;7.64;47.77
55317;BME280;41178;48.956;8.130;2024-03-25T03:25:09;99118.47;;;8.39;46.92
55317;BME280;41178;48.956;8.130;2024-03-25T03:30:10;98979.66;;;10.30;44.55
55317;BME280;41178;48.956;8.130;2024-03-25T03:35:11;99071.50;;;10.64;42.95
55317;BME280;41178;48.956;8.130;2024-03-25T03:40:12;99065.41;;;11.17;42.19
55317;BME280;41178;48.956;8.130;2024-03-25T03:45:12;99118.47;;;10.80;42.59
55317;BME280;41178;48.956;8.130;2024-03-25T03:50:13;99102.00;;;12.10;40.50
55317;BME280;41178;48.956;8.130;2024-03-25T03:55:14;99123.00;;;12.19;40.25
55317;BME280;41178;48.956;8.130;2024-03-25T04:00:15;99303.81;;;9.24;43.21
55317;BME280;41178;48.956;8.130;2024-03-25T04:05:15;99144.13;;;11.49;41.66
55317;BME280;41178;48.956;8.130;2024-03-25T04:10:17;99108.88;;;11.66;41.32
55317;BME280;41178;48.956;8.130;2024-03-25T04:15:17;99073.63;;;11.69;41.51
55317;BME280;41178;48.956;8.130;2024-03-25T04:20:19;99158.94;;;11.38;40.88
55317;BME280;41178;48.956;8.130;2024-03-25T04:25:20;99092.44;;;10.47;42.90
55317;BME280;41178;48.956;8.130;2024-03-25T04:30:21;99124.66;;;10.32;42.75
55317;BME280;41178;48.956;8.130;2024-03-25T04:35:22;99198.56;;;10.81;41.45
55317;BME280;41178;48.956;8.130;2024-03-25T04:40:22;99076.91;;;10.77;42.23
55317;BME280;41178;48.956;8.130;2024-03-25T04:45:23;99129.66;;;10.97;41.46
55317;BME280;41178;48.956;8.130;2024-03-25T04:50:24;99160.94;;;10.96;41.60
55317;BME280;41178;48.956;8.130;2024-03-25T04:55:25;99099.41;;;11.36;41.25
55317;BME280;41178;48.956;8.130;2024-03-25T05:00:25;99126.56;;;12.07;39.92
55317;BME280;41178;48.956;8.130;2024-03-25T05:05:26;99226.19;;;10.88;41.34
55317;BME280;41178;48.956;8.130;2024-03-25T05:10:27;99112.84;;;10.61;42.53
55317;BME280;41178;48.956;8.130;2024-03-25T05:15:27;99042.72;;;11.46;41.58
55317;BME280;41178;48.956;8.130;2024-03-25T05:20:28;99305.75;;;9.15;43.54
55317;BME280;41178;48.956;8.130;2024-03-25T05:25:29;99124.53;;;10.47;42.48
55317;BME280;41178;48.956;8.130;2024-03-25T05:30:29;99245.44;;;10.36;41.78
55317;BME280;41178;48.956;8.130;2024-03-25T05:35:30;99291.94;;;7.99;45.58
55317;BME280;41178;48.956;8.130;2024-03-25T05:40:33;99081.34;;;12.69;39.31
55317;BME280;41178;48.956;8.130;2024-03-25T05:45:34;99230.84;;;9.38;43.55
55317;BME280;41178;48.956;8.130;2024-03-25T05:50:35;99288.41;;;10.34;41.45
55317;BME280;41178;48.956;8.130;2024-03-25T05:55:35;99046.75;;;12.02;41.06
55317;BME280;41178;48.956;8.130;2024-03-25T06:00:36;99115.28;;;9.23;44.94
55317;BME280;41178;48.956;8.130;2024-03-25T06:05:37;99191.50;;;12.29;39.63
55317;BME280;41178;48.956;8.130;2024-03-25T06:10:37;99111.78;;;10.49;42.55
55317;BME280;41178;48.956;8.130;2024-03-25T06:15:38;99156.66;;;10.54;42.59
55317;BME280;41178;48.956;8.130;2024-03-25T06:20:39;99221.13;;;10.65;41.80
55317;BME280;41178;48.956;8.130;2024-03-25T06:25:39;99164.69;;;12.22;39.85
55317;BME280;41178;48.956;8.130;2024-03-25T06:30:40;99141.94;;;12.38;40.09
55317;BME280;41178;48.956;8.130;2024-03-25T06:35:59;99121.09;;;13.17;39.33
55317;BME280;41178;48.956;8.130;2024-03-25T06:41:00;99175.69;;;11.80;40.81
55317;BME280;41178;48.956;8.130;2024-03-25T06:46:01;99237.72;;;12.24;40.09
55317;BME280;41178;48.956;8.130;2024-03-25T06:51:02;99243.16;;;12.89;39.28
55317;BME280;41178;48.956;8.130;2024-03-25T06:56:03;99219.06;;;12.69;40.01
55317;BME280;41178;48.956;8.130;2024-03-25T07:06:06;99283.88;;;12.73;39.70
55317;BME280;41178;48.956;8.130;2024-03-25T07:11:07;99160.91;;;13.59;39.49
55317;BME280;41178;48.956;8.130;2024-03-25T07:16:07;99160.38;;;13.50;38.99
55317;BME280;41178;48.956;8.130;2024-03-25T07:21:08;99126.19;;;12.55;40.94
55317;BME280;41178;48.956;8.130;2024-03-25T07:26:09;99186.69;;;13.03;40.07
55317;BME280;41178;48.956;8.130;2024-03-25T07:31:09;99176.78;;;12.58;39.89
55317;BME280;41178;48.956;8.130;2024-03-25T07:36:10;99104.50;;;13.96;38.86
55317;BME280;41178;48.956;8.130;2024-03-25T07:41:11;99190.75;;;13.76;38.38
55317;BME280;41178;48.956;8.130;2024-03-25T07:46:12;99208.13;;;13.73;38.86
55317;BME280;41178;48.956;8.130;2024-03-25T07:51:13;99105.47;;;14.57;38.35
55317;BME280;41178;48.956;8.130;2024-03-25T07:56:15;99175.75;;;14.86;37.37
55317;BME280;41178;48.956;8.130;2024-03-25T08:01:16;99174.38;;;15.25;37.25
55317;BME280;41178;48.956;8.130;2024-03-25T08:06:16;99151.69;;;15.03;38.00
55317;BME280;41178;48.956;8.130;2024-03-25T08:11:17;99216.44;;;15.57;36.79
55317;BME280;41178;48.956;8.130;2024-03-25T08:16:17;99211.31;;;15.06;37.21
55317;BME280;41178;48.956;8.130;2024-03-25T08:21:20;99170.09;;;15.06;37.57
55317;BME280;41178;48.956;8.130;2024-03-25T08:26:21;99105.31;;;15.78;36.02
55317;BME280;41178;48.956;8.130;2024-03-25T08:31:21;99130.00;;;16.34;35.47
55317;BME280;41178;48.956;8.130;2024-03-25T08:36:22;99186.78;;;15.68;36.19
55317;BME280;41178;48.956;8.130;2024-03-25T08:41:24;99105.66;;;17.04;34.61
55317;BME280;41178;48.956;8.130;2024-03-25T08:46:24;99247.94;;;15.14;36.21
55317;BME280;41178;48.956;8.130;2024-03-25T08:51:25;99146.44;;;16.09;35.94
55317;BME280;41178;48.956;8.130;2024-03-25T08:56:25;99256.44;;;14.37;37.63
55317;BME280;41178;48.956;8.130;2024-03-25T09:01:27;99148.00;;;15.93;37.39
55317;BME280;41178;48.956;8.130;2024-03-25T09:06:27;99160.09;;;13.83;37.62
55317;BME280;41178;48.956;8.130;2024-03-25T09:11:28;99076.56;;;15.72;37.57
55317;BME280;41178;48.956;8.130;2024-03-25T09:16:29;99100.28;;;17.21;34.95
55317;BME280;41178;48.956;8.130;2024-03-25T09:21:30;99081.72;;;14.35;38.06
55317;BME280;41178;48.956;8.130;2024-03-25T09:26:31;99089.25;;;14.45;37.96
55317;BME280;41178;48.956;8.130;2024-03-25T09:31:31;99111.06;;;12.74;39.75
55317;BME280;41178;48.956;8.130;2024-03-25T09:36:32;99112.44;;;13.15;38.98
55317;BME280;41178;48.956;8.130;2024-03-25T09:41:35;98983.97;;;15.19;37.27
55317;BME280;41178;48.956;8.130;2024-03-25T09:46:37;99068.59;;;14.88;37.14
55317;BME280;41178;48.956;8.130;2024-03-25T09:51:37;99074.16;;;15.05;36.87
55317;BME280;41178;48.956;8.130;2024-03-25T09:56:39;99079.34;;;15.54;36.04
55317;BME280;41178;48.956;8.130;2024-03-25T10:01:40;98969.97;;;15.81;36.56
55317;BME280;41178;48.956;8.130;2024-03-25T10:06:41;98989.59;;;17.31;35.34
55317;BME280;41178;48.956;8.130;2024-03-25T10:11:42;99039.63;;;14.41;36.55
55317;BME280;41178;48.956;8.130;2024-03-25T10:16:43;99058.41;;;15.79;35.12
55317;BME280;41178;48.956;8.130;2024-03-25T10:21:43;98996.38;;;15.67;33.30
55317;BME280;41178;48.956;8.130;2024-03-25T10:26:44;98968.22;;;17.29;31.58
55317;BME280;41178;48.956;8.130;2024-03-25T10:31:45;99058.66;;;14.58;32.81
55317;BME280;41178;48.956;8.130;2024-03-25T10:36:47;99002.94;;;15.72;32.83
55317;BME280;41178;48.956;8.130;2024-03-25T10:41:48;98965.03;;;16.65;32.02
